Mariposa, CA

9:54 PM PDT on October 30, 2014 (GMT -0700)
Madera Municipal | Change Station
CLOSE
Current Station
Airport
Location: Madera,
Elevation: 253 ft
Nearby Weather Stations

Elev 253 ft 36.99 °N, 120.11 °W | Updated 1 hour ago

Clear
Clear
62 °F
Feels Like 62 °F
N
0
Wind Variable Wind from North

Today
High -- | Low -- °F
--% Chance of Precip.
Yesterday
High -- | Low -- °F
Precip. -- in
7:22 AM 6:03 PM
Waxing Crescent, 51% visible
Pressure 29.88 in
Visibility 7.0 miles
Clouds Clear
Dew Point 46 °F
Humidity 56%
Rainfall 0.00 in
Snow Depth Not available.
UV 0 out of 12
Pollen 1.80 out of 12
Air Quality Not available.
Flu Activity Not available.
METAR KMAE 310353Z AUTO 00000KT 7SM CLR 17/08 A2988 RMK AO2 SLP116 T01670078

More Conditions Fewer Conditions

Pressure 29.88 in
Visibility 7.0 miles
Clouds Clear
Dew Point 46 °F
Humidity 56%
Rainfall 0.00 in
Snow Depth Not available.
UV 0 out of 12
Pollen 1.80 out of 12
Air Quality Not available.
Flu Activity Not available.
METAR KMAE 310353Z AUTO 00000KT 7SM CLR 17/08 A2988 RMK AO2 SLP116 T01670078

More Conditions Fewer Conditions

10-Day Weather Forecast

Almanac

Astronomy

Oct. 30, 2014 Rise Set
Actual Time
Civil Twilight
Nautical Twilight
Astronomical Twilight
Moon
Length of Visible Light
Length of Day
Tomorrow will be .
, % of the Moon is Illuminated

Today's Extremes

State Highs State Lows

Community

WunderPhotos

Upload Photos

1,766,567 photos uploaded!

WunderBlogs® & News

Nearby

Air Quality

  Air Quality AQ Index Pollutant
Not available.

Snow Depth

Station Depth Elevation

Earthquake Activity

City Distance Mag. Time & Date
Minimum magnitude displayed is 2.5.

Coastal Water Temperatures

Place Temperature

Nearby Weather Stations